Boerne, TX (78015)

2:45 PM CST on March 03, 2015 (GMT -0600)
boerne north | Change Station
CLOSE
Current Station
Personal Weather Station
Location: Boerne, TX
Elevation: 1480 ft
Nearby Weather Stations
Active Advisory: Special Statement

Elev 1480 ft 29.81 °N, 98.75 °W | Updated 37 seconds ago

Overcast
Overcast
59.9 °F
Feels Like 59.9 °F
N
4.0
Wind Variable Wind from NNW
Gusts 7.4 mph

Today
High -- | Low -- °F
--% Chance of Precip.
Yesterday
High -- | Low -- °F
Precip. -- in
6:58 AM 6:35 PM
Waxing Gibbous, 97% visible
Pressure 29.88 in
Visibility 10.0 miles
Clouds Overcast 300 ft
Dew Point 60 °F
Humidity 99%
Rainfall 0.05 in
Snow Depth Not available.
UV 2 out of 12
Pollen 8.90 out of 12
Air Quality Not available.
Flu Activity Not available.
METAR K5C1 032035Z AUTO 19006KT 10SM OVC003 13/13 A2988 RMK AO1

More Conditions Fewer Conditions

Pressure 29.88 in
Visibility 10.0 miles
Clouds Overcast 300 ft
Dew Point 60 °F
Humidity 99%
Rainfall 0.05 in
Snow Depth Not available.
UV 2 out of 12
Pollen 8.90 out of 12
Air Quality Not available.
Flu Activity Not available.
METAR K5C1 032035Z AUTO 19006KT 10SM OVC003 13/13 A2988 RMK AO1

More Conditions Fewer Conditions

10-Day Weather Forecast

Almanac

Astronomy

Mar. 03, 2015 Rise Set
Actual Time
Civil Twilight
Nautical Twilight
Astronomical Twilight
Moon
Length of Visible Light
Length of Day
Tomorrow will be .
, % of the Moon is Illuminated

Today's Extremes

State Highs State Lows

Community

WunderPhotos

Upload Photos

1,802,246 photos uploaded!

WunderBlogs® & News

Nearby

Air Quality

  Air Quality AQ Index Pollutant
Not available.

Snow Depth

Station Depth Elevation

Earthquake Activity

City Distance Mag. Time & Date
Minimum magnitude displayed is 2.5.

Coastal Water Temperatures

Place Temperature

Nearby Weather Stations

Special Statement
Statement as of 6:07 AM CST on March 03, 2015

... A wintry mix is expected Wednesday evening through Thursday
morning...

Another strong Arctic cold front will plunge across south central
Texas during the day on Wednesday. Temperatures will rapidly fall
after the frontal passage. Freezing temperatures are expected to
begin to filter into The Hill Country Wednesday evening and spread
to near Highway 90 or north of a del Rio to San Antonio to
Giddings line by Thursday morning. A sleet and freezing rain mix
will develop Wednesday evening across The Hill Country and then
transition to a sleet and snow mix by Thursday morning for areas
north of Highway 90. Areas in The Hill Country and along the I-35
corridor northeast of San Antonio will have the best chances of
accumulating ice with impacts. Temperatures will warm to above
freezing by midday on Thursday with any remaining precipitation
being all rain.

Those residing in or visiting south central Texas should monitor
the forecast for the latest information and updates regarding this
potential winter weather event.